To NAV CANADA Home Page Login to a new session Search on AWWS site Feedback and Comments Disclaimer Vers la page française équivalente Tips FAQ What's new on the site To the Forecasts and Observations / NOTAM section To "File a Flight Plan" website Publications and other links Update of the User's profile FIC Telephone Numbers My Weather Data Folder Route Weather Data Regional Weather Data Local Weather Data To the Forecasts and Observations / NOTAM section
Request Generated 04/23/2014 at 14:05:08 UTC . Weather information available at that time is displayed.

METAR/TAF

MONTREAL/MONTREAL INTL (MIRABEL)/QC    

METAR CYMX 231300Z 34010KT 40SM FEW020 FEW060 BKN120 BKN250 08/01
A2964 RMK CF1SC1AC4CI2 CF TR SLP040=
METAR CYMX 231200Z 31005KT 25SM FEW020 FEW070 SCT220 06/01 A2963 RMK
CU1AC2CI2 CU TR SLP035=
METAR CYMX 231100Z 30005KT 25SM FEW020 FEW040 SCT110 05/02 A2961 RMK
CF1SC1AC3 CF TR SLP030=

TAF CYMX 231138Z 2312/2412 30005KT P6SM FEW040 SCT110 TEMPO 2312/2314
BKN040
FM231400 32012G22KT P6SM BKN040
FM240000 32012KT P6SM FEW040 BKN080
RMK NXT FCST BY 231800Z=
Your time UTC time
Weather data provided by Environment Canada and NAV CANADA